createdAt,value
2017-11-26T00:00:36.367Z,79.12
2017-11-26T00:01:36.296Z,79.50
2017-11-26T00:02:36.210Z,79.03
2017-11-26T00:03:36.121Z,79.50
2017-11-26T00:04:36.018Z,79.60
2017-11-26T00:05:35.938Z,79.50
2017-11-26T00:06:35.854Z,80.07
2017-11-26T00:07:35.758Z,79.88
2017-11-26T00:08:35.673Z,80.16
2017-11-26T00:09:35.585Z,80.16
2017-11-26T00:10:35.489Z,80.07
2017-11-26T00:11:35.402Z,79.97
2017-11-26T00:12:35.310Z,79.74
2017-11-26T00:13:35.229Z,80.64
2017-11-26T00:14:35.136Z,79.97
2017-11-26T00:15:35.057Z,79.88
2017-11-26T00:16:34.969Z,80.07
2017-11-26T00:17:34.873Z,79.50
2017-11-26T00:18:34.785Z,79.55
2017-11-26T00:19:34.699Z,80.03
2017-11-26T00:20:34.613Z,80.51
2017-11-26T00:21:34.526Z,80.41
2017-11-26T00:22:34.439Z,80.41
2017-11-26T00:23:34.338Z,80.88
2017-11-26T00:24:34.253Z,80.79
2017-11-26T00:25:34.162Z,80.60
2017-11-26T00:26:34.065Z,80.41
2017-11-26T00:27:34.017Z,80.22
2017-11-26T00:28:33.909Z,80.79
2017-11-26T00:29:33.807Z,80.98
2017-11-26T00:30:33.728Z,80.51
2017-11-26T00:31:33.632Z,80.41
2017-11-26T00:32:33.542Z,80.98
2017-11-26T00:33:33.446Z,81.26
2017-11-26T00:34:33.360Z,80.32
2017-11-26T00:35:33.276Z,80.32
2017-11-26T00:36:33.184Z,80.69
2017-11-26T00:37:33.099Z,80.41
2017-11-26T00:38:33.006Z,80.60
2017-11-26T00:39:32.918Z,80.51
2017-11-26T00:40:32.833Z,80.83
2017-11-26T00:41:32.737Z,80.60
2017-11-26T00:42:32.651Z,80.60
2017-11-26T00:43:32.574Z,80.79
2017-11-26T00:44:32.490Z,80.74
2017-11-26T00:45:32.390Z,80.55
2017-11-26T00:46:32.298Z,80.13
2017-11-26T00:47:32.925Z,80.13
2017-11-26T00:48:32.122Z,80.03
2017-11-26T00:49:32.072Z,80.16
2017-11-26T00:50:31.958Z,80.07
2017-11-26T00:51:31.861Z,80.22
2017-11-26T00:52:31.768Z,80.41
2017-11-26T00:53:31.684Z,80.41
2017-11-26T00:54:31.592Z,80.51
2017-11-26T00:55:31.499Z,81.07
2017-11-26T00:56:31.413Z,81.07
2017-11-26T00:57:31.320Z,80.51
2017-11-26T00:58:31.279Z,80.69
2017-11-26T00:59:31.157Z,80.51
2017-11-26T01:00:31.059Z,80.22
2017-11-26T01:01:30.974Z,80.07
2017-11-26T01:02:30.893Z,79.74
2017-11-26T01:03:30.795Z,79.55
2017-11-26T01:04:30.703Z,80.03
2017-11-26T01:05:30.617Z,80.16
2017-11-26T01:06:30.542Z,80.51
2017-11-26T01:07:30.443Z,80.03
2017-11-26T01:08:30.354Z,80.03
2017-11-26T01:09:30.261Z,80.03
2017-11-26T01:10:30.175Z,79.46
2017-11-26T01:11:30.118Z,79.94
2017-11-26T01:12:29.999Z,79.74
2017-11-26T01:13:29.914Z,79.27
2017-11-26T01:14:29.830Z,79.17
2017-11-26T01:15:29.732Z,79.50
2017-11-26T01:16:29.645Z,79.55
2017-11-26T01:17:29.554Z,78.08
2017-11-26T01:18:29.466Z,78.61
2017-11-26T01:19:29.386Z,78.70
2017-11-26T01:20:29.288Z,79.08
2017-11-26T01:21:29.207Z,79.36
2017-11-26T01:22:29.111Z,79.84
2017-11-26T01:23:29.025Z,78.51
2017-11-26T01:24:28.939Z,78.32
2017-11-26T01:25:28.862Z,78.80
2017-11-26T01:26:28.766Z,78.99
2017-11-26T01:27:28.673Z,79.36
2017-11-26T01:28:28.585Z,80.03
2017-11-26T01:29:28.506Z,79.74
2017-11-26T01:30:28.413Z,78.99
2017-11-26T01:31:28.326Z,78.61
2017-11-26T01:32:28.247Z,78.55
2017-11-26T01:33:28.149Z,78.36
2017-11-26T01:34:28.057Z,77.66
2017-11-26T01:35:27.964Z,78.42
2017-11-26T01:36:27.868Z,78.32
2017-11-26T01:37:27.787Z,78.23
2017-11-26T01:38:27.695Z,78.32
2017-11-26T01:39:27.609Z,77.75
2017-11-26T01:40:27.527Z,77.94
2017-11-26T01:41:27.433Z,78.08
2017-11-26T01:42:27.342Z,77.56
2017-11-26T01:43:27.275Z,77.94
2017-11-26T01:44:27.164Z,77.94
2017-11-26T01:45:27.077Z,77.66
2017-11-26T01:46:27.485Z,77.75
2017-11-26T01:47:26.914Z,77.18
2017-11-26T01:48:26.812Z,77.28
2017-11-26T01:49:26.738Z,76.90
2017-11-26T01:50:26.630Z,77.28
2017-11-26T01:51:26.541Z,77.56
2017-11-26T01:52:26.457Z,77.28
2017-11-26T01:53:26.377Z,77.31
2017-11-26T01:54:26.291Z,76.90
2017-11-26T01:55:26.202Z,76.99
2017-11-26T01:56:26.099Z,77.47
2017-11-26T01:57:26.012Z,77.28
2017-11-26T01:58:25.926Z,77.18
2017-11-26T01:59:25.835Z,77.28
2017-11-26T02:00:25.748Z,77.18
2017-11-26T02:01:25.661Z,77.28
2017-11-26T02:02:25.573Z,77.37
2017-11-26T02:03:25.483Z,77.37
2017-11-26T02:04:25.395Z,77.37
2017-11-26T02:05:25.307Z,77.28
2017-11-26T02:06:25.211Z,77.28
2017-11-26T02:07:25.123Z,77.56
2017-11-26T02:08:25.028Z,77.75
2017-11-26T02:09:24.953Z,77.28
2017-11-26T02:10:24.873Z,77.56
2017-11-26T02:11:24.764Z,77.47
2017-11-26T02:12:24.680Z,77.37
2017-11-26T02:13:24.591Z,77.37
2017-11-26T02:14:24.500Z,77.28
2017-11-26T02:15:24.410Z,77.47
2017-11-26T02:16:24.326Z,77.94
2017-11-26T02:17:24.233Z,77.84
2017-11-26T02:18:24.139Z,77.47
2017-11-26T02:19:24.052Z,77.75
2017-11-26T02:20:23.965Z,77.47
2017-11-26T02:21:23.877Z,77.84
2017-11-26T02:22:23.787Z,78.03
2017-11-26T02:23:23.700Z,77.24
2017-11-26T02:24:23.614Z,77.66
2017-11-26T02:25:23.525Z,77.75
2017-11-26T02:26:23.428Z,77.66
2017-11-26T02:27:23.340Z,77.56
2017-11-26T02:28:23.248Z,77.94
2017-11-26T02:29:23.175Z,77.66
2017-11-26T02:30:23.084Z,77.66
2017-11-26T02:31:22.985Z,78.03
2017-11-26T02:32:22.893Z,78.23
2017-11-26T02:33:22.807Z,78.13
2017-11-26T02:34:22.710Z,78.00
2017-11-26T02:35:22.624Z,78.47
2017-11-26T02:36:22.537Z,79.42
2017-11-26T02:37:22.463Z,79.04
2017-11-26T02:38:22.359Z,79.52
2017-11-26T02:39:22.269Z,79.42
2017-11-26T02:40:22.178Z,79.80
2017-11-26T02:41:22.088Z,79.42
2017-11-26T02:42:22.005Z,79.42
2017-11-26T02:43:21.904Z,78.75
2017-11-26T02:44:21.819Z,79.14
2017-11-26T02:45:22.095Z,79.04
2017-11-26T02:46:21.638Z,79.23
2017-11-26T02:47:21.553Z,79.23
2017-11-26T02:48:21.467Z,79.99
2017-11-26T02:49:21.367Z,79.52
2017-11-26T02:50:21.297Z,79.99
2017-11-26T02:51:21.188Z,79.14
2017-11-26T02:52:21.103Z,79.71
2017-11-26T02:53:21.002Z,79.33
2017-11-26T02:54:20.928Z,78.95
2017-11-26T02:55:20.833Z,78.47
2017-11-26T02:56:20.745Z,79.61
2017-11-26T02:57:20.651Z,79.33
2017-11-26T02:58:20.554Z,79.33
2017-11-26T02:59:20.473Z,79.52
2017-11-26T03:00:20.383Z,78.85
2017-11-26T03:01:20.300Z,78.47
2017-11-26T03:02:20.244Z,78.61
2017-11-26T03:03:20.108Z,78.47
2017-11-26T03:04:20.032Z,78.56
2017-11-26T03:05:19.945Z,79.23
2017-11-26T03:06:19.840Z,79.61
2017-11-26T03:07:19.757Z,79.99
2017-11-26T03:08:19.661Z,79.52
2017-11-26T03:09:19.568Z,79.27
2017-11-26T03:10:19.487Z,78.51
2017-11-26T03:11:19.411Z,78.80
2017-11-26T03:12:19.319Z,78.70
2017-11-26T03:13:19.221Z,78.61
2017-11-26T03:14:19.128Z,78.61
2017-11-26T03:15:19.041Z,78.80
2017-11-26T03:16:18.948Z,78.32
2017-11-26T03:17:18.859Z,78.42
2017-11-26T03:18:18.771Z,78.51
2017-11-26T03:19:18.693Z,78.03
2017-11-26T03:20:18.597Z,78.23
2017-11-26T03:21:18.510Z,78.03
2017-11-26T03:22:18.415Z,78.80
2017-11-26T03:23:18.329Z,78.70
2017-11-26T03:24:18.236Z,78.23
2017-11-26T03:25:18.147Z,79.52
2017-11-26T03:26:18.061Z,79.04
2017-11-26T03:27:17.977Z,79.99
2017-11-26T03:28:17.887Z,79.42
2017-11-26T03:29:17.795Z,79.71
2017-11-26T03:30:17.708Z,79.52
2017-11-26T03:31:17.637Z,79.46
2017-11-26T03:32:17.524Z,79.90
2017-11-26T03:33:17.438Z,79.61
2017-11-26T03:34:17.347Z,79.99
2017-11-26T03:35:17.263Z,80.08
2017-11-26T03:36:17.175Z,80.27
2017-11-26T03:37:17.076Z,80.56
2017-11-26T03:38:16.994Z,80.08
2017-11-26T03:39:16.904Z,79.27
2017-11-26T03:40:16.824Z,79.14
2017-11-26T03:41:16.748Z,79.61
2017-11-26T03:42:16.648Z,79.61
2017-11-26T03:43:16.547Z,80.08
2017-11-26T03:44:16.665Z,79.84
2017-11-26T03:45:16.365Z,79.84
2017-11-26T03:46:16.277Z,79.23
2017-11-26T03:47:16.191Z,80.18
2017-11-26T03:48:16.096Z,80.03
2017-11-26T03:49:16.012Z,79.71
2017-11-26T03:50:15.919Z,80.18
2017-11-26T03:51:15.834Z,80.46
2017-11-26T03:52:15.940Z,80.08
2017-11-26T03:53:15.660Z,79.27
2017-11-26T03:54:15.576Z,79.65
2017-11-26T03:55:15.477Z,79.36
2017-11-26T03:56:15.389Z,79.17
2017-11-26T03:57:15.311Z,80.03
2017-11-26T03:58:15.206Z,79.08
2017-11-26T03:59:15.124Z,79.94
2017-11-26T04:00:15.029Z,79.80
2017-11-26T04:01:14.941Z,80.03
2017-11-26T04:02:14.852Z,80.03
2017-11-26T04:03:14.757Z,79.80
2017-11-26T04:04:14.675Z,80.18
2017-11-26T04:05:14.594Z,80.18
2017-11-26T04:06:14.525Z,80.56
2017-11-26T04:07:14.404Z,80.37
2017-11-26T04:08:14.321Z,80.37
2017-11-26T04:09:14.227Z,80.37
2017-11-26T04:10:14.142Z,80.56
2017-11-26T04:11:14.048Z,80.27
2017-11-26T04:12:13.965Z,79.90
2017-11-26T04:13:13.880Z,80.08
2017-11-26T04:14:13.780Z,79.90
2017-11-26T04:15:13.689Z,79.74
2017-11-26T04:16:13.610Z,79.61
2017-11-26T04:17:13.515Z,79.52
2017-11-26T04:18:13.428Z,80.18
2017-11-26T04:19:13.344Z,80.18
2017-11-26T04:20:13.247Z,79.84
2017-11-26T04:21:13.157Z,79.52
2017-11-26T04:22:13.068Z,79.80
2017-11-26T04:23:12.977Z,79.74
2017-11-26T04:24:12.884Z,79.99
2017-11-26T04:25:12.802Z,80.08
2017-11-26T04:26:12.713Z,79.71
2017-11-26T04:27:12.617Z,79.55
2017-11-26T04:28:12.534Z,79.99
2017-11-26T04:29:12.450Z,79.23
2017-11-26T04:30:12.356Z,79.99
2017-11-26T04:31:12.281Z,79.42
2017-11-26T04:32:12.183Z,79.52
2017-11-26T04:33:12.091Z,79.61
2017-11-26T04:34:12.004Z,79.46
2017-11-26T04:35:11.912Z,79.65
2017-11-26T04:36:11.822Z,78.80
2017-11-26T04:37:11.740Z,78.28
2017-11-26T04:38:11.647Z,78.56
2017-11-26T04:39:11.558Z,78.47
2017-11-26T04:40:11.473Z,78.56
2017-11-26T04:41:11.370Z,78.56
2017-11-26T04:42:11.289Z,78.66
2017-11-26T04:43:11.267Z,78.51
2017-11-26T04:44:11.110Z,78.51
2017-11-26T04:45:11.020Z,77.66
2017-11-26T04:46:10.930Z,77.56
2017-11-26T04:47:10.840Z,77.18
2017-11-26T04:48:10.754Z,77.47
2017-11-26T04:49:10.662Z,77.52
2017-11-26T04:50:10.578Z,77.24
2017-11-26T04:51:10.485Z,77.24
2017-11-26T04:52:10.416Z,77.43
2017-11-26T04:53:10.308Z,77.05
2017-11-26T04:54:10.220Z,77.28
2017-11-26T04:55:10.143Z,77.28
2017-11-26T04:56:10.051Z,76.99
2017-11-26T04:57:09.974Z,77.09
2017-11-26T04:58:09.865Z,76.90
2017-11-26T04:59:09.778Z,77.09
2017-11-26T05:00:09.701Z,76.80
2017-11-26T05:01:09.599Z,77.18
2017-11-26T05:02:09.509Z,77.37
2017-11-26T05:03:09.425Z,77.37
2017-11-26T05:04:09.328Z,77.37
2017-11-26T05:05:09.236Z,76.76
2017-11-26T05:06:09.154Z,77.43
2017-11-26T05:07:09.066Z,77.47
2017-11-26T05:08:08.983Z,77.18
2017-11-26T05:09:08.888Z,76.80
2017-11-26T05:10:08.808Z,76.67
2017-11-26T05:11:08.722Z,77.18
2017-11-26T05:12:08.635Z,77.09
2017-11-26T05:13:08.544Z,77.05
2017-11-26T05:14:08.449Z,77.43
2017-11-26T05:15:08.354Z,77.14
2017-11-26T05:16:08.270Z,77.24
2017-11-26T05:17:08.172Z,77.33
2017-11-26T05:18:08.083Z,77.43
2017-11-26T05:19:07.992Z,77.24
2017-11-26T05:20:07.906Z,77.14
2017-11-26T05:21:07.813Z,77.33
2017-11-26T05:22:07.730Z,77.43
2017-11-26T05:23:07.633Z,77.24
2017-11-26T05:24:07.549Z,77.24
2017-11-26T05:25:07.456Z,77.14
2017-11-26T05:26:07.367Z,77.14
2017-11-26T05:27:07.278Z,77.24
2017-11-26T05:28:07.192Z,77.33
2017-11-26T05:29:07.103Z,77.24
2017-11-26T05:30:07.007Z,77.24
2017-11-26T05:31:06.922Z,77.33
2017-11-26T05:32:06.833Z,77.71
2017-11-26T05:33:06.739Z,77.14
2017-11-26T05:34:06.662Z,77.62
2017-11-26T05:35:06.569Z,77.81
2017-11-26T05:36:06.472Z,78.00
2017-11-26T05:37:06.376Z,77.05
2017-11-26T05:38:06.290Z,77.43
2017-11-26T05:39:06.204Z,77.14
2017-11-26T05:40:06.108Z,77.37
2017-11-26T05:41:06.022Z,77.05
2017-11-26T05:42:05.940Z,76.76
2017-11-26T05:43:05.852Z,77.24
2017-11-26T05:44:05.762Z,78.28
2017-11-26T05:45:05.668Z,78.56
2017-11-26T05:46:05.588Z,77.71
2017-11-26T05:47:05.488Z,77.33
2017-11-26T05:48:05.396Z,77.33
2017-11-26T05:49:05.303Z,77.28
2017-11-26T05:50:05.234Z,76.80
2017-11-26T05:51:05.136Z,77.24
2017-11-26T05:52:05.035Z,77.24
2017-11-26T05:53:04.946Z,77.33
2017-11-26T05:54:04.855Z,77.09
2017-11-26T05:55:04.786Z,76.71
2017-11-26T05:56:04.684Z,77.09
2017-11-26T05:57:04.594Z,77.33
2017-11-26T05:58:04.502Z,77.28
2017-11-26T05:59:04.412Z,77.05
2017-11-26T06:00:04.321Z,77.05
2017-11-26T06:01:04.235Z,77.28
2017-11-26T06:02:04.153Z,77.43
2017-11-26T06:03:04.054Z,77.33
2017-11-26T06:04:03.969Z,77.62
2017-11-26T06:05:03.877Z,78.00
2017-11-26T06:06:03.790Z,78.75
2017-11-26T06:07:03.697Z,79.33
2017-11-26T06:08:03.605Z,79.42
2017-11-26T06:09:03.520Z,79.42
2017-11-26T06:10:03.429Z,79.33
2017-11-26T06:11:03.342Z,78.89
2017-11-26T06:12:04.136Z,78.70
2017-11-26T06:13:03.166Z,78.80
2017-11-26T06:14:03.088Z,79.46
2017-11-26T06:15:02.988Z,79.08
2017-11-26T06:16:02.909Z,79.46
2017-11-26T06:17:02.804Z,79.46
2017-11-26T06:18:02.722Z,79.17
2017-11-26T06:19:02.625Z,79.80
2017-11-26T06:20:02.542Z,79.33
2017-11-26T06:21:02.461Z,79.80
2017-11-26T06:22:02.369Z,79.80
2017-11-26T06:23:02.292Z,80.08
2017-11-26T06:24:02.189Z,79.99
2017-11-26T06:25:02.107Z,79.80
2017-11-26T06:26:02.008Z,79.99
2017-11-26T06:27:01.917Z,79.52
2017-11-26T06:28:01.824Z,80.08
2017-11-26T06:29:01.738Z,80.37
2017-11-26T06:30:01.656Z,80.84
2017-11-26T06:31:01.568Z,79.80
2017-11-26T06:32:01.482Z,79.71
2017-11-26T06:33:01.388Z,79.27
2017-11-26T06:34:01.292Z,79.80
2017-11-26T06:35:01.205Z,79.90
2017-11-26T06:36:01.114Z,79.90
2017-11-26T06:37:01.024Z,79.84
2017-11-26T06:38:00.937Z,79.99
2017-11-26T06:39:00.846Z,79.04
2017-11-26T06:40:00.759Z,79.80
2017-11-26T06:41:00.669Z,79.99
2017-11-26T06:42:00.581Z,79.99
2017-11-26T06:43:00.497Z,79.80
2017-11-26T06:44:00.405Z,79.99
2017-11-26T06:45:00.309Z,79.52
2017-11-26T06:46:00.236Z,79.52
2017-11-26T06:47:00.135Z,79.90
2017-11-26T06:48:00.044Z,79.71
2017-11-26T06:48:59.960Z,79.90
2017-11-26T06:49:59.875Z,79.99
2017-11-26T06:50:59.777Z,79.80
2017-11-26T06:51:59.707Z,79.80
2017-11-26T06:52:59.596Z,79.33
2017-11-26T06:53:59.514Z,79.90
2017-11-26T06:54:59.440Z,79.14
2017-11-26T06:55:59.329Z,79.52
2017-11-26T06:56:59.243Z,79.23
2017-11-26T06:57:59.154Z,79.14
2017-11-26T06:58:59.070Z,79.52
2017-11-26T06:59:59.018Z,79.61
2017-11-26T07:00:58.893Z,79.80
2017-11-26T07:01:58.799Z,80.08
2017-11-26T07:02:58.707Z,79.99
2017-11-26T07:03:58.621Z,80.18
2017-11-26T07:04:58.528Z,79.61
2017-11-26T07:05:58.440Z,79.80
2017-11-26T07:06:58.354Z,79.61
2017-11-26T07:07:58.263Z,79.52
2017-11-26T07:08:58.176Z,79.99
2017-11-26T07:09:58.090Z,79.90
2017-11-26T07:10:58.730Z,80.27
2017-11-26T07:11:57.906Z,81.13
2017-11-26T07:12:57.840Z,79.99
2017-11-26T07:13:57.859Z,80.56
2017-11-26T07:14:57.647Z,80.84
2017-11-26T07:15:57.559Z,80.56
2017-11-26T07:16:57.478Z,80.46
2017-11-26T07:17:57.371Z,80.46
2017-11-26T07:18:57.279Z,80.08
2017-11-26T07:19:57.225Z,80.08
2017-11-26T07:20:57.100Z,79.99
2017-11-26T07:21:57.021Z,79.23
2017-11-26T07:22:56.926Z,79.99
2017-11-26T07:23:56.838Z,80.08
2017-11-26T07:24:56.741Z,80.08
2017-11-26T07:25:56.658Z,80.08
2017-11-26T07:26:56.572Z,79.80
2017-11-26T07:27:56.499Z,79.90
2017-11-26T07:28:56.395Z,80.08
2017-11-26T07:29:56.303Z,80.08
2017-11-26T07:30:56.222Z,79.71
2017-11-26T07:31:56.124Z,79.99
2017-11-26T07:32:56.040Z,80.46
2017-11-26T07:33:55.944Z,80.84
2017-11-26T07:34:55.872Z,80.65
2017-11-26T07:35:55.767Z,80.27
2017-11-26T07:36:55.684Z,80.46
2017-11-26T07:37:55.582Z,80.46
2017-11-26T07:38:55.499Z,80.18
2017-11-26T07:39:55.421Z,79.80
2017-11-26T07:40:55.321Z,80.08
2017-11-26T07:41:55.235Z,80.56
2017-11-26T07:42:55.163Z,80.46
2017-11-26T07:43:55.056Z,80.08
2017-11-26T07:44:54.975Z,80.46
2017-11-26T07:45:54.878Z,80.18
2017-11-26T07:46:54.787Z,80.37
2017-11-26T07:47:54.697Z,81.41
2017-11-26T07:48:54.635Z,81.41
2017-11-26T07:49:54.517Z,80.65
2017-11-26T07:50:54.441Z,80.56
2017-11-26T07:51:54.340Z,80.37
2017-11-26T07:52:54.248Z,81.13
2017-11-26T07:53:54.162Z,81.04
2017-11-26T07:54:54.065Z,80.65
2017-11-26T07:55:53.976Z,80.65
2017-11-26T07:56:53.894Z,80.08
2017-11-26T07:57:53.803Z,80.75
2017-11-26T07:58:53.722Z,80.65
2017-11-26T07:59:53.621Z,80.56
2017-11-26T08:00:53.544Z,81.13
2017-11-26T08:01:53.472Z,82.17
2017-11-26T08:02:53.360Z,81.98
2017-11-26T08:03:53.261Z,81.32
2017-11-26T08:04:53.169Z,80.94
2017-11-26T08:05:53.091Z,80.84
2017-11-26T08:06:52.994Z,80.56
2017-11-26T08:07:52.901Z,80.46
2017-11-26T08:08:52.813Z,80.37
2017-11-26T08:09:53.318Z,80.37
2017-11-26T08:10:52.636Z,80.41
2017-11-26T08:11:52.548Z,80.13
2017-11-26T08:12:52.454Z,79.36
2017-11-26T08:13:52.373Z,80.27
2017-11-26T08:14:52.277Z,80.65
2017-11-26T08:15:52.190Z,80.22
2017-11-26T08:16:52.114Z,80.13
2017-11-26T08:17:52.020Z,80.22
2017-11-26T08:18:51.929Z,80.27
2017-11-26T08:19:51.836Z,79.99
2017-11-26T08:20:51.743Z,80.13
2017-11-26T08:21:51.668Z,80.13
2017-11-26T08:22:51.577Z,80.08
2017-11-26T08:23:51.485Z,80.32
2017-11-26T08:24:51.385Z,80.18
2017-11-26T08:25:51.300Z,81.04
2017-11-26T08:26:51.212Z,80.94
2017-11-26T08:27:51.125Z,80.88
2017-11-26T08:28:51.032Z,80.75
2017-11-26T08:29:50.957Z,80.75
2017-11-26T08:30:50.854Z,80.75
2017-11-26T08:31:50.763Z,80.94
2017-11-26T08:32:50.670Z,81.07
2017-11-26T08:33:50.603Z,80.51
2017-11-26T08:34:50.497Z,80.22
2017-11-26T08:35:50.413Z,80.56
2017-11-26T08:36:50.318Z,80.84
2017-11-26T08:37:50.246Z,80.51
2017-11-26T08:38:50.141Z,80.65
2017-11-26T08:39:50.050Z,80.84
2017-11-26T08:40:49.961Z,81.04
2017-11-26T08:41:49.879Z,80.94
2017-11-26T08:42:49.841Z,81.23
2017-11-26T08:43:49.693Z,81.79
2017-11-26T08:44:49.607Z,81.60
2017-11-26T08:45:49.518Z,81.32
2017-11-26T08:46:49.429Z,81.70
2017-11-26T08:47:49.339Z,81.79
2017-11-26T08:48:49.260Z,81.51
2017-11-26T08:49:49.156Z,81.70
2017-11-26T08:50:49.065Z,83.12
2017-11-26T08:51:48.987Z,81.98
2017-11-26T08:52:48.885Z,81.79
2017-11-26T08:53:48.799Z,82.12
2017-11-26T08:54:48.722Z,81.88
2017-11-26T08:55:48.628Z,80.98
2017-11-26T08:56:48.543Z,80.98
2017-11-26T08:57:48.438Z,80.69
2017-11-26T08:58:48.363Z,81.17
2017-11-26T08:59:48.264Z,80.98
2017-11-26T09:00:48.178Z,81.26
2017-11-26T09:01:48.093Z,80.98
2017-11-26T09:02:47.999Z,81.26
2017-11-26T09:03:47.910Z,81.17
2017-11-26T09:04:47.822Z,80.94
2017-11-26T09:05:47.743Z,81.65
2017-11-26T09:06:47.676Z,81.65
2017-11-26T09:07:47.562Z,81.07
2017-11-26T09:08:47.904Z,80.79
2017-11-26T09:09:47.378Z,80.98
2017-11-26T09:10:47.303Z,80.98
2017-11-26T09:11:47.199Z,80.98
2017-11-26T09:12:49.053Z,80.79
2017-11-26T09:13:47.021Z,82.40
2017-11-26T09:14:46.932Z,83.64
2017-11-26T09:15:46.868Z,83.26
2017-11-26T09:16:46.761Z,82.78
2017-11-26T09:17:46.670Z,83.07
2017-11-26T09:18:46.575Z,83.36
2017-11-26T09:19:46.487Z,82.97
2017-11-26T09:20:46.410Z,82.74
2017-11-26T09:21:46.311Z,83.07
2017-11-26T09:22:46.223Z,82.46
2017-11-26T09:23:46.141Z,82.50
2017-11-26T09:24:46.045Z,81.65
2017-11-26T09:25:45.952Z,81.65
2017-11-26T09:26:45.864Z,81.74
2017-11-26T09:27:45.780Z,81.74
2017-11-26T09:28:45.688Z,81.17
2017-11-26T09:29:45.615Z,80.88
2017-11-26T09:30:45.527Z,80.79
2017-11-26T09:31:45.430Z,81.84
2017-11-26T09:32:45.336Z,81.45
2017-11-26T09:33:45.246Z,81.93
2017-11-26T09:34:45.161Z,81.79
2017-11-26T09:35:45.100Z,82.31
2017-11-26T09:36:44.992Z,81.93
2017-11-26T09:37:44.899Z,81.26
2017-11-26T09:38:44.826Z,81.32
2017-11-26T09:39:44.721Z,82.84
2017-11-26T09:40:44.625Z,83.40
2017-11-26T09:41:44.529Z,84.83
2017-11-26T09:42:44.450Z,84.07
2017-11-26T09:43:44.355Z,85.49
2017-11-26T09:44:44.270Z,84.64
2017-11-26T09:45:44.175Z,84.64
2017-11-26T09:46:44.088Z,83.54
2017-11-26T09:47:43.992Z,82.74
2017-11-26T09:48:43.906Z,82.93
2017-11-26T09:49:43.817Z,83.69
2017-11-26T09:50:43.730Z,83.40
2017-11-26T09:51:43.633Z,82.65
2017-11-26T09:52:43.545Z,82.84
2017-11-26T09:53:43.459Z,82.65
2017-11-26T09:54:43.368Z,83.03
2017-11-26T09:55:43.278Z,83.22
2017-11-26T09:56:43.186Z,82.97
2017-11-26T09:57:43.104Z,82.50
2017-11-26T09:58:43.020Z,82.36
2017-11-26T09:59:42.910Z,82.27
2017-11-26T10:00:42.833Z,82.65
2017-11-26T10:01:42.748Z,82.55
2017-11-26T10:02:42.651Z,81.98
2017-11-26T10:03:42.556Z,82.08
2017-11-26T10:04:42.467Z,82.17
2017-11-26T10:05:42.385Z,82.93
2017-11-26T10:06:42.297Z,83.59
2017-11-26T10:07:42.505Z,82.69
2017-11-26T10:08:42.107Z,82.12
2017-11-26T10:09:42.032Z,81.36
2017-11-26T10:10:41.933Z,80.41
2017-11-26T10:11:41.847Z,80.07
2017-11-26T10:12:41.765Z,78.74
2017-11-26T10:13:41.667Z,78.17
2017-11-26T10:14:41.602Z,78.55
2017-11-26T10:15:41.482Z,79.41
2017-11-26T10:16:41.389Z,78.74
2017-11-26T10:17:41.311Z,79.50
2017-11-26T10:18:41.219Z,79.41
2017-11-26T10:19:41.140Z,78.83
2017-11-26T10:20:41.046Z,78.83
2017-11-26T10:21:40.957Z,78.55
2017-11-26T10:22:40.864Z,78.36
2017-11-26T10:23:40.783Z,79.50
2017-11-26T10:24:40.700Z,79.12
2017-11-26T10:25:40.601Z,79.17
2017-11-26T10:26:40.516Z,79.36
2017-11-26T10:27:40.421Z,79.55
2017-11-26T10:28:40.338Z,79.46
2017-11-26T10:29:40.254Z,79.36
2017-11-26T10:30:40.153Z,79.41
2017-11-26T10:31:40.071Z,78.74
2017-11-26T10:32:40.017Z,79.27
2017-11-26T10:33:39.905Z,79.36
2017-11-26T10:34:39.821Z,79.17
2017-11-26T10:35:39.721Z,79.55
2017-11-26T10:36:39.625Z,79.55
2017-11-26T10:37:39.539Z,79.94
2017-11-26T10:38:39.481Z,79.84
2017-11-26T10:39:39.382Z,79.65
2017-11-26T10:40:39.268Z,79.27
2017-11-26T10:41:39.182Z,78.99
2017-11-26T10:42:39.098Z,79.46
2017-11-26T10:43:39.007Z,79.55
2017-11-26T10:44:38.912Z,79.74
2017-11-26T10:45:38.831Z,79.94
2017-11-26T10:46:38.765Z,80.51
2017-11-26T10:47:38.645Z,80.22
2017-11-26T10:48:38.558Z,80.13
2017-11-26T10:49:38.477Z,79.08
2017-11-26T10:50:38.386Z,79.74
2017-11-26T10:51:38.287Z,79.08
2017-11-26T10:52:38.193Z,79.84
2017-11-26T10:53:38.105Z,79.36
2017-11-26T10:54:38.030Z,79.36
2017-11-26T10:55:37.935Z,79.17
2017-11-26T10:56:37.847Z,79.84
2017-11-26T10:57:37.745Z,78.61
2017-11-26T10:58:37.690Z,78.42
2017-11-26T10:59:37.573Z,79.55
2017-11-26T11:00:37.478Z,78.99
2017-11-26T11:01:37.398Z,79.14
2017-11-26T11:02:37.306Z,79.55
2017-11-26T11:03:37.212Z,79.55
2017-11-26T11:04:37.125Z,79.17
2017-11-26T11:05:37.036Z,79.65
2017-11-26T11:06:37.060Z,79.46
2017-11-26T11:07:36.868Z,78.42
2017-11-26T11:08:36.777Z,78.83
2017-11-26T11:09:36.695Z,78.32
2017-11-26T11:10:36.598Z,79.27
2017-11-26T11:11:36.503Z,78.51
2017-11-26T11:12:36.416Z,78.80
2017-11-26T11:13:36.329Z,78.61
2017-11-26T11:14:36.240Z,78.03
2017-11-26T11:15:36.144Z,78.89
2017-11-26T11:16:36.071Z,78.70
2017-11-26T11:17:35.973Z,78.80
2017-11-26T11:18:35.892Z,78.23
2017-11-26T11:19:35.786Z,78.89
2017-11-26T11:20:35.696Z,78.23
2017-11-26T11:21:35.612Z,77.41
2017-11-26T11:22:35.522Z,76.90
2017-11-26T11:23:35.433Z,76.93
2017-11-26T11:24:35.340Z,76.56
2017-11-26T11:25:35.318Z,76.75
2017-11-26T11:26:35.173Z,77.03
2017-11-26T11:27:35.078Z,76.46
2017-11-26T11:28:34.991Z,76.37
2017-11-26T11:29:34.907Z,76.56
2017-11-26T11:30:34.821Z,75.60
2017-11-26T11:31:34.728Z,74.66
2017-11-26T11:32:34.636Z,75.51
2017-11-26T11:33:34.543Z,75.13
2017-11-26T11:34:34.532Z,75.70
2017-11-26T11:35:34.371Z,75.13
2017-11-26T11:36:34.277Z,75.13
2017-11-26T11:37:34.191Z,75.13
2017-11-26T11:38:34.093Z,75.60
2017-11-26T11:39:34.012Z,75.13
2017-11-26T11:40:33.925Z,74.75
2017-11-26T11:41:33.836Z,75.13
2017-11-26T11:42:33.742Z,75.23
2017-11-26T11:43:33.655Z,74.66
2017-11-26T11:44:33.586Z,74.88
2017-11-26T11:45:33.494Z,73.84
2017-11-26T11:46:33.401Z,72.70
2017-11-26T11:47:33.300Z,72.26
2017-11-26T11:48:33.208Z,71.69
2017-11-26T11:49:33.142Z,70.54
2017-11-26T11:50:33.055Z,71.46
2017-11-26T11:51:32.944Z,72.51
2017-11-26T11:52:32.859Z,71.69
2017-11-26T11:53:32.837Z,71.69
2017-11-26T11:54:32.688Z,71.27
2017-11-26T11:55:32.595Z,71.75
2017-11-26T11:56:32.513Z,71.75
2017-11-26T11:57:32.417Z,72.32
2017-11-26T11:58:32.335Z,72.13
2017-11-26T11:59:32.246Z,72.51
2017-11-26T12:00:32.159Z,72.32
2017-11-26T12:01:32.097Z,72.79
2017-11-26T12:02:31.977Z,72.70
2017-11-26T12:03:31.890Z,72.22
2017-11-26T12:04:31.817Z,72.41
2017-11-26T12:05:31.717Z,72.22
2017-11-26T12:06:31.628Z,72.41
2017-11-26T12:07:31.560Z,72.51
2017-11-26T12:08:31.449Z,72.41
2017-11-26T12:09:31.408Z,72.41
2017-11-26T12:10:31.284Z,72.60
2017-11-26T12:11:31.196Z,71.71
2017-11-26T12:12:31.104Z,72.85
2017-11-26T12:13:31.019Z,72.75
2017-11-26T12:14:30.919Z,72.70
2017-11-26T12:15:30.835Z,72.19
2017-11-26T12:16:30.747Z,72.22
2017-11-26T12:17:30.657Z,72.13
2017-11-26T12:18:30.572Z,71.66
2017-11-26T12:19:30.481Z,71.46
2017-11-26T12:20:30.397Z,72.32
2017-11-26T12:21:30.305Z,72.03
2017-11-26T12:22:30.223Z,72.32
2017-11-26T12:23:30.158Z,71.94
2017-11-26T12:24:30.064Z,71.46
2017-11-26T12:25:29.967Z,71.18
2017-11-26T12:26:29.867Z,71.46
2017-11-26T12:27:29.786Z,70.99
2017-11-26T12:28:29.699Z,70.42
2017-11-26T12:29:29.604Z,70.99
2017-11-26T12:30:29.515Z,70.61
2017-11-26T12:31:29.426Z,70.89
2017-11-26T12:32:29.336Z,70.61
2017-11-26T12:33:29.250Z,70.42
2017-11-26T12:34:29.163Z,70.13
2017-11-26T12:35:29.894Z,70.70
2017-11-26T12:36:28.988Z,70.99
2017-11-26T12:37:28.895Z,70.70
2017-11-26T12:38:28.809Z,71.08
2017-11-26T12:39:28.730Z,71.56
2017-11-26T12:40:28.626Z,71.75
2017-11-26T12:41:28.535Z,71.66
2017-11-26T12:42:28.452Z,71.84
2017-11-26T12:43:28.363Z,72.13
2017-11-26T12:44:28.281Z,72.03
2017-11-26T12:45:28.179Z,71.75
2017-11-26T12:46:28.098Z,71.37
2017-11-26T12:47:28.001Z,71.08
2017-11-26T12:48:27.912Z,71.46
2017-11-26T12:49:27.829Z,71.37
2017-11-26T12:50:27.742Z,71.33
2017-11-26T12:51:27.651Z,72.09